createdAt,value
2022-12-11T00:00:27.069Z,1.40
2022-12-11T00:03:03.335Z,1.40
2022-12-11T00:05:38.979Z,1.40
2022-12-11T00:08:14.212Z,1.30
2022-12-11T00:10:59.047Z,1.30
2022-12-11T00:13:37.947Z,1.30
2022-12-11T00:16:23.902Z,1.30
2022-12-11T00:19:05.597Z,1.30
2022-12-11T00:21:35.127Z,1.30
2022-12-11T00:24:13.822Z,1.30
2022-12-11T00:26:54.922Z,1.30
2022-12-11T00:29:36.440Z,1.30
2022-12-11T00:32:18.966Z,1.30
2022-12-11T00:34:57.451Z,1.30
2022-12-11T00:37:32.804Z,1.20
2022-12-11T00:40:11.723Z,1.20
2022-12-11T00:43:02.313Z,1.20
2022-12-11T00:45:46.391Z,1.10
2022-12-11T00:48:33.077Z,1.10
2022-12-11T00:51:11.552Z,2.10
2022-12-11T00:53:48.057Z,1.00
2022-12-11T00:56:28.409Z,1.00
2022-12-11T00:59:07.913Z,1.00
2022-12-11T01:01:45.977Z,1.00
2022-12-11T01:04:22.070Z,0.90
2022-12-11T01:06:57.669Z,2.70
2022-12-11T01:09:49.154Z,0.90
2022-12-11T01:12:27.740Z,0.90
2022-12-11T01:15:05.176Z,1.70
2022-12-11T01:17:43.267Z,2.10
2022-12-11T01:20:19.362Z,1.10
2022-12-11T01:23:03.031Z,0.90
2022-12-11T01:25:44.010Z,2.40
2022-12-11T01:28:25.689Z,2.00
2022-12-11T01:31:10.151Z,0.90
2022-12-11T01:33:49.807Z,0.90
2022-12-11T01:36:32.038Z,1.10
2022-12-11T01:39:08.094Z,0.90
2022-12-11T01:41:49.613Z,1.80
2022-12-11T01:44:25.948Z,0.90
2022-12-11T01:47:07.511Z,0.90
2022-12-11T01:49:45.945Z,0.90
2022-12-11T01:52:25.423Z,1.70
2022-12-11T01:55:05.108Z,0.90
2022-12-11T01:57:43.717Z,2.40
2022-12-11T02:00:27.157Z,1.30
2022-12-11T02:03:07.021Z,0.90
2022-12-11T02:05:45.862Z,2.00
2022-12-11T02:08:27.676Z,1.00
2022-12-11T02:11:03.667Z,1.00
2022-12-11T02:13:56.151Z,1.00
2022-12-11T02:16:53.059Z,1.00
2022-12-11T02:19:31.781Z,1.00
2022-12-11T02:22:15.205Z,1.00
2022-12-11T02:25:09.308Z,1.00
2022-12-11T02:27:53.209Z,1.00
2022-12-11T02:30:36.423Z,1.00
2022-12-11T02:33:13.079Z,1.10
2022-12-11T02:35:57.960Z,1.10
2022-12-11T02:38:41.075Z,1.10
2022-12-11T02:41:19.704Z,1.20
2022-12-11T02:43:57.178Z,1.50
2022-12-11T02:46:39.069Z,1.20
2022-12-11T02:49:16.118Z,1.90
2022-12-11T02:51:58.749Z,1.90
2022-12-11T02:54:43.240Z,1.20
2022-12-11T02:57:27.865Z,1.20
2022-12-11T03:00:11.795Z,2.10
2022-12-11T03:02:49.988Z,1.50
2022-12-11T03:05:30.762Z,1.20
2022-12-11T03:08:09.973Z,1.20
2022-12-11T03:10:48.597Z,1.20
2022-12-11T03:13:30.802Z,1.20
2022-12-11T03:16:14.195Z,1.20
2022-12-11T03:18:56.194Z,1.20
2022-12-11T03:21:46.198Z,1.10
2022-12-11T03:24:30.437Z,1.10
2022-12-11T03:27:12.864Z,1.10
2022-12-11T03:30:00.043Z,1.20
2022-12-11T03:32:40.763Z,1.80
2022-12-11T03:35:22.451Z,1.20
2022-12-11T03:38:01.789Z,1.20
2022-12-11T03:40:37.578Z,1.20
2022-12-11T03:43:16.904Z,1.20
2022-12-11T03:45:58.352Z,1.20
2022-12-11T03:48:37.899Z,1.30
2022-12-11T03:51:18.534Z,1.20
2022-12-11T03:53:54.762Z,1.20
2022-12-11T03:56:36.605Z,2.50
2022-12-11T03:59:13.125Z,1.30
2022-12-11T04:01:53.312Z,1.20
2022-12-11T04:04:27.183Z,1.30
2022-12-11T04:07:06.167Z,1.50
2022-12-11T04:09:38.870Z,1.30
2022-12-11T04:12:20.530Z,1.30
2022-12-11T04:15:06.124Z,1.30
2022-12-11T04:17:57.394Z,1.20
2022-12-11T04:20:47.039Z,1.20
2022-12-11T04:23:35.860Z,1.10
2022-12-11T04:26:23.687Z,1.30
2022-12-11T04:29:02.529Z,1.00
2022-12-11T04:31:41.161Z,0.90
2022-12-11T04:34:23.092Z,0.90
2022-12-11T04:37:05.108Z,0.80
2022-12-11T04:39:46.756Z,0.80
2022-12-11T04:42:25.894Z,0.70
2022-12-11T04:45:07.638Z,0.70
2022-12-11T04:47:44.221Z,0.70
2022-12-11T04:50:23.156Z,0.60
2022-12-11T04:53:08.189Z,1.70
2022-12-11T04:55:44.976Z,0.50
2022-12-11T04:58:22.541Z,0.40
2022-12-11T05:01:03.887Z,1.70
2022-12-11T05:03:39.838Z,0.40
2022-12-11T05:06:17.026Z,0.60
2022-12-11T05:08:52.291Z,0.40
2022-12-11T05:11:28.433Z,2.00
2022-12-11T05:13:55.991Z,1.40
2022-12-11T05:16:37.078Z,0.70
2022-12-11T05:19:15.156Z,0.60
2022-12-11T05:21:56.930Z,0.20
2022-12-11T05:24:35.945Z,0.80
2022-12-11T05:27:14.542Z,0.20
2022-12-11T05:29:51.655Z,0.50
2022-12-11T05:32:35.234Z,0.20
2022-12-11T05:35:09.446Z,0.10
2022-12-11T05:37:51.570Z,0.20
2022-12-11T05:40:28.414Z,0.20
2022-12-11T05:43:10.030Z,0.20
2022-12-11T05:45:48.981Z,0.10
2022-12-11T05:48:31.720Z,0.10
2022-12-11T05:51:12.072Z,1.00
2022-12-11T05:53:52.017Z,0.10
2022-12-11T05:56:30.916Z,0.10
2022-12-11T05:59:07.149Z,0.10
2022-12-11T06:01:55.327Z,0.10
2022-12-11T06:04:30.954Z,0.10
2022-12-11T06:07:04.324Z,0.10
2022-12-11T06:09:40.226Z,0.10
2022-12-11T06:12:16.011Z,1.70
2022-12-11T06:14:52.148Z,1.80
2022-12-11T06:17:33.934Z,0.10
2022-12-11T06:20:12.792Z,0.10
2022-12-11T06:22:48.303Z,0.50
2022-12-11T06:25:28.004Z,0.10
2022-12-11T06:28:09.745Z,0.10
2022-12-11T06:30:48.888Z,1.40
2022-12-11T06:33:27.273Z,0.20
2022-12-11T06:36:08.360Z,0.10
2022-12-11T06:38:47.073Z,0.50
2022-12-11T06:41:38.095Z,1.00
2022-12-11T06:44:16.353Z,0.10
2022-12-11T06:47:16.519Z,1.70
2022-12-11T06:49:55.097Z,0.20
2022-12-11T06:52:37.851Z,0.20
2022-12-11T06:55:19.693Z,1.70
2022-12-11T06:58:00.974Z,0.20
2022-12-11T07:00:37.197Z,0.20
2022-12-11T07:03:13.043Z,0.20
2022-12-11T07:05:50.091Z,0.10
2022-12-11T07:08:31.580Z,0.10
2022-12-11T07:11:15.678Z,0.10
2022-12-11T07:13:54.683Z,0.20
2022-12-11T07:16:31.073Z,0.10
2022-12-11T07:19:09.840Z,0.30
2022-12-11T07:21:48.319Z,1.00
2022-12-11T07:24:26.940Z,0.20
2022-12-11T07:27:03.189Z,0.90
2022-12-11T07:29:40.783Z,0.20
2022-12-11T07:32:19.300Z,1.00
2022-12-11T07:35:00.405Z,0.20
2022-12-11T07:37:39.892Z,1.00
2022-12-11T07:40:20.794Z,0.20
2022-12-11T07:42:57.136Z,0.20
2022-12-11T07:45:37.127Z,0.20
2022-12-11T07:48:11.035Z,0.20
2022-12-11T07:50:53.076Z,0.20
2022-12-11T07:53:33.223Z,0.20
2022-12-11T07:56:14.596Z,0.30
2022-12-11T07:58:51.013Z,0.30
2022-12-11T08:01:38.984Z,0.30
2022-12-11T08:04:19.363Z,0.30
2022-12-11T08:06:58.522Z,0.40
2022-12-11T08:09:35.212Z,0.40
2022-12-11T08:12:15.167Z,0.40
2022-12-11T08:14:55.885Z,0.40
2022-12-11T08:17:36.634Z,1.20
2022-12-11T08:20:16.054Z,0.50
2022-12-11T08:22:59.279Z,0.50
2022-12-11T08:25:36.207Z,0.60
2022-12-11T08:28:18.927Z,0.60
2022-12-11T08:30:52.205Z,0.60
2022-12-11T08:33:33.784Z,0.60
2022-12-11T08:36:14.294Z,0.70
2022-12-11T08:38:56.001Z,0.80
2022-12-11T08:41:35.037Z,0.80
2022-12-11T08:44:16.576Z,0.90
2022-12-11T08:46:56.156Z,1.20
2022-12-11T08:49:34.887Z,1.10
2022-12-11T08:52:10.201Z,1.10
2022-12-11T08:54:48.369Z,1.20
2022-12-11T08:57:26.723Z,1.30
2022-12-11T09:00:02.590Z,1.40
2022-12-11T09:02:41.249Z,1.40
2022-12-11T09:05:22.453Z,3.10
2022-12-11T09:07:57.874Z,1.60
2022-12-11T09:10:36.910Z,1.70
2022-12-11T09:13:12.306Z,1.90
2022-12-11T09:15:54.726Z,2.10
2022-12-11T09:18:31.088Z,2.20
2022-12-11T09:21:13.145Z,2.30
2022-12-11T09:23:52.010Z,2.40
2022-12-11T09:26:33.994Z,2.40
2022-12-11T09:29:11.249Z,2.40
2022-12-11T09:31:52.704Z,2.30
2022-12-11T09:34:29.391Z,2.30
2022-12-11T09:37:11.118Z,2.40
2022-12-11T09:39:46.997Z,2.40
2022-12-11T09:42:28.166Z,2.40
2022-12-11T09:45:08.245Z,2.50
2022-12-11T09:47:51.185Z,2.40
2022-12-11T09:53:36.357Z,2.40
2022-12-11T09:56:15.197Z,2.30
2022-12-11T09:58:41.876Z,2.40
2022-12-11T10:01:22.864Z,2.40
2022-12-11T10:04:05.159Z,2.50
2022-12-11T10:06:31.930Z,2.50
2022-12-11T10:08:58.520Z,4.00
2022-12-11T10:12:14.218Z,3.80
2022-12-11T10:14:46.059Z,2.50
2022-12-11T10:17:17.374Z,2.50
2022-12-11T10:19:43.987Z,2.50
2022-12-11T10:22:16.991Z,2.50
2022-12-11T10:27:58.299Z,2.60
2022-12-11T10:30:25.541Z,1.80
2022-12-11T10:32:55.916Z,3.20
2022-12-11T10:35:32.326Z,2.50
2022-12-11T10:38:19.245Z,2.30
2022-12-11T10:40:57.994Z,2.20
2022-12-11T10:43:33.886Z,2.10
2022-12-11T10:46:00.568Z,2.00
2022-12-11T10:48:27.207Z,2.10
2022-12-11T10:50:58.031Z,2.00
2022-12-11T10:53:25.307Z,2.00
2022-12-11T10:55:52.576Z,2.00
2022-12-11T10:58:23.953Z,1.80
2022-12-11T11:01:03.660Z,1.90
2022-12-11T11:03:30.386Z,1.90
2022-12-11T11:06:06.557Z,2.00
2022-12-11T11:08:42.608Z,2.00
2022-12-11T11:11:16.210Z,2.00
2022-12-11T11:13:42.856Z,2.30
2022-12-11T11:16:12.344Z,1.90
2022-12-11T11:18:40.206Z,2.40
2022-12-11T11:21:07.138Z,1.80
2022-12-11T11:23:37.609Z,1.80
2022-12-11T11:26:07.276Z,1.80
2022-12-11T11:28:34.353Z,1.80
2022-12-11T11:31:01.603Z,1.90
2022-12-11T11:33:28.314Z,1.90
2022-12-11T11:35:55.919Z,1.90
2022-12-11T11:38:23.458Z,2.50
2022-12-11T11:40:58.155Z,1.90
2022-12-11T11:43:30.544Z,1.90
2022-12-11T11:46:18.547Z,2.00
2022-12-11T11:48:48.294Z,2.10
2022-12-11T11:51:16.121Z,2.10
2022-12-11T11:53:43.969Z,2.00
2022-12-11T11:56:25.431Z,2.00
2022-12-11T11:58:59.201Z,2.00
2022-12-11T12:01:25.878Z,1.90
2022-12-11T12:03:52.706Z,1.90
2022-12-11T12:06:28.713Z,1.80
2022-12-11T12:09:02.601Z,1.80
2022-12-11T12:11:29.368Z,1.70
2022-12-11T12:14:43.760Z,1.70
2022-12-11T12:17:04.897Z,1.60
2022-12-11T12:19:31.581Z,1.50
2022-12-11T12:21:58.183Z,2.50
2022-12-11T12:24:34.728Z,1.40
2022-12-11T12:27:43.686Z,1.30
2022-12-11T12:30:20.400Z,1.30
2022-12-11T12:33:01.670Z,1.20
2022-12-11T12:35:38.105Z,1.20
2022-12-11T12:38:04.726Z,1.10
2022-12-11T12:40:37.373Z,1.70
2022-12-11T12:43:10.082Z,1.00
2022-12-11T12:45:43.187Z,0.90
2022-12-11T12:48:09.890Z,0.80
2022-12-11T12:50:37.592Z,0.90
2022-12-11T12:53:05.001Z,0.70
2022-12-11T12:55:31.990Z,0.70
2022-12-11T12:58:05.776Z,0.60
2022-12-11T13:00:33.624Z,0.60
2022-12-11T13:03:29.914Z,0.50
2022-12-11T13:05:57.885Z,0.50
2022-12-11T13:08:25.538Z,1.10
2022-12-11T13:10:58.643Z,0.50
2022-12-11T13:13:31.706Z,0.50
2022-12-11T13:16:17.131Z,0.50
2022-12-11T13:18:44.588Z,0.40
2022-12-11T13:21:29.739Z,0.40
2022-12-11T13:24:11.150Z,0.50
2022-12-11T13:26:38.210Z,1.10
2022-12-11T13:29:04.918Z,0.40
2022-12-11T13:31:40.738Z,1.20
2022-12-11T13:34:09.118Z,0.40
2022-12-11T13:36:36.011Z,1.80
2022-12-11T13:39:04.891Z,0.40
2022-12-11T13:41:32.687Z,0.40
2022-12-11T13:43:59.292Z,0.70
2022-12-11T13:49:18.597Z,0.40
2022-12-11T13:51:51.185Z,0.80
2022-12-11T13:54:20.509Z,1.00
2022-12-11T13:56:54.125Z,0.70
2022-12-11T13:59:23.650Z,0.60
2022-12-11T14:01:50.464Z,0.60
2022-12-11T14:04:17.718Z,2.10
2022-12-11T14:06:47.737Z,0.80
2022-12-11T14:09:16.363Z,0.70
2022-12-11T14:11:42.978Z,0.70
2022-12-11T14:14:21.658Z,0.70
2022-12-11T14:16:51.749Z,0.60
2022-12-11T14:19:19.919Z,0.60
2022-12-11T14:22:00.321Z,0.50
2022-12-11T14:24:27.380Z,0.50
2022-12-11T14:26:54.268Z,1.00
2022-12-11T14:29:28.523Z,0.60
2022-12-11T14:31:55.574Z,0.30
2022-12-11T14:34:26.546Z,0.30
2022-12-11T14:36:53.216Z,0.30
2022-12-11T14:39:37.540Z,0.30
2022-12-11T14:42:10.795Z,0.30
2022-12-11T14:45:03.760Z,0.30
2022-12-11T14:47:31.216Z,0.30
2022-12-11T14:50:01.438Z,0.30
2022-12-11T14:52:29.785Z,1.70
2022-12-11T14:55:19.779Z,0.80
2022-12-11T14:57:47.512Z,0.30
2022-12-11T15:00:24.040Z,1.00
2022-12-11T15:03:00.303Z,0.30
2022-12-11T15:05:26.988Z,0.30
2022-12-11T15:07:58.184Z,0.80
2022-12-11T15:10:54.300Z,0.30
2022-12-11T15:13:24.115Z,0.30
2022-12-11T15:15:50.709Z,0.30
2022-12-11T15:18:24.711Z,1.30
2022-12-11T15:20:55.533Z,0.30
2022-12-11T15:23:22.179Z,0.30
2022-12-11T15:25:52.655Z,0.30
2022-12-11T15:28:26.136Z,0.30
2022-12-11T15:31:15.890Z,0.30
2022-12-11T15:33:46.267Z,0.30
2022-12-11T15:36:21.798Z,0.30
2022-12-11T15:38:48.402Z,0.30
2022-12-11T15:41:15.814Z,1.60
2022-12-11T15:43:42.660Z,0.30
2022-12-11T15:46:09.446Z,0.30
2022-12-11T15:48:36.295Z,0.30
2022-12-11T15:51:03.754Z,0.30
2022-12-11T15:53:30.419Z,0.40
2022-12-11T15:55:57.598Z,0.30
2022-12-11T15:58:24.670Z,0.30
2022-12-11T16:00:51.634Z,0.30
2022-12-11T16:03:18.904Z,0.30
2022-12-11T16:05:45.565Z,0.30
2022-12-11T16:08:24.208Z,0.30
2022-12-11T16:10:53.594Z,0.30
2022-12-11T16:13:20.453Z,0.30
2022-12-11T16:15:47.651Z,0.20
2022-12-11T16:18:15.607Z,0.20
2022-12-11T16:20:42.577Z,0.30
2022-12-11T16:23:09.473Z,0.20
2022-12-11T16:25:39.905Z,0.30
2022-12-11T16:28:11.103Z,0.30
2022-12-11T16:30:48.823Z,1.50
2022-12-11T16:33:22.159Z,0.30
2022-12-11T16:35:57.952Z,0.20
2022-12-11T16:38:37.530Z,0.20
2022-12-11T16:41:15.360Z,0.20
2022-12-11T16:43:51.559Z,0.20
2022-12-11T16:46:30.826Z,1.20
2022-12-11T16:49:06.415Z,0.10
2022-12-11T16:51:45.124Z,0.10
2022-12-11T16:54:23.858Z,0.10
2022-12-11T16:57:02.515Z,0.10
2022-12-11T16:59:38.382Z,1.50
2022-12-11T17:02:16.788Z,1.50
2022-12-11T17:04:56.194Z,0.10
2022-12-11T17:07:32.272Z,0.10
2022-12-11T17:10:11.435Z,0.20
2022-12-11T17:12:53.020Z,1.20
2022-12-11T17:15:31.468Z,0.50
2022-12-11T17:18:04.304Z,0.10
2022-12-11T17:20:42.820Z,0.10
2022-12-11T17:23:20.771Z,0.10
2022-12-11T17:25:55.875Z,0.10
2022-12-11T17:28:37.502Z,0.00
2022-12-11T17:31:12.821Z,0.00
2022-12-11T17:33:51.292Z,0.00
2022-12-11T17:36:28.943Z,0.00
2022-12-11T17:39:08.489Z,-0.10
2022-12-11T17:41:45.082Z,0.30
2022-12-11T17:44:26.877Z,-0.20
2022-12-11T17:47:01.207Z,-0.20
2022-12-11T17:49:40.304Z,-0.30
2022-12-11T17:52:18.208Z,-0.30
2022-12-11T17:54:55.315Z,-0.30
2022-12-11T17:57:33.797Z,-0.30
2022-12-11T18:00:13.994Z,-0.30
2022-12-11T18:02:53.798Z,-0.40
2022-12-11T18:05:31.564Z,-0.40
2022-12-11T18:08:07.396Z,0.70
2022-12-11T18:10:43.314Z,-0.50
2022-12-11T18:13:19.069Z,-0.50
2022-12-11T18:16:05.152Z,-0.50
2022-12-11T18:18:43.886Z,-0.50
2022-12-11T18:21:24.361Z,-0.30
2022-12-11T18:24:07.588Z,-0.50
2022-12-11T18:26:45.475Z,-0.60
2022-12-11T18:29:26.678Z,-0.60
2022-12-11T18:32:03.467Z,-0.60
2022-12-11T18:34:43.343Z,0.40
2022-12-11T18:37:23.386Z,-0.60
2022-12-11T18:40:09.450Z,-0.60
2022-12-11T18:42:45.137Z,-0.60
2022-12-11T18:45:21.217Z,-0.60
2022-12-11T18:48:00.190Z,-0.70
2022-12-11T18:50:39.177Z,-0.60
2022-12-11T18:53:18.243Z,-0.60
2022-12-11T18:56:00.675Z,-0.60
2022-12-11T18:58:27.494Z,-0.70
2022-12-11T19:01:03.805Z,-0.60
2022-12-11T19:03:42.754Z,0.40
2022-12-11T19:06:24.164Z,-0.50
2022-12-11T19:09:02.738Z,-0.60
2022-12-11T19:11:39.012Z,-0.30
2022-12-11T19:14:11.317Z,-0.60
2022-12-11T19:16:51.905Z,0.40
2022-12-11T19:19:28.302Z,-0.60
2022-12-11T19:22:09.508Z,-0.60
2022-12-11T19:24:46.347Z,-0.60
2022-12-11T19:27:28.260Z,-0.60
2022-12-11T19:30:07.269Z,-0.40
2022-12-11T19:32:41.991Z,-0.60
2022-12-11T19:35:16.707Z,-0.50
2022-12-11T19:37:58.496Z,-0.60
2022-12-11T19:40:34.445Z,-0.60
2022-12-11T19:43:13.046Z,-0.60
2022-12-11T19:45:49.334Z,-0.60
2022-12-11T19:48:31.973Z,-0.60
2022-12-11T19:51:20.946Z,-0.60
2022-12-11T19:53:57.472Z,-0.60
2022-12-11T19:56:34.403Z,-0.60
2022-12-11T19:59:13.582Z,-0.60
2022-12-11T20:01:52.330Z,-0.50
2022-12-11T20:04:34.244Z,-0.50
2022-12-11T20:07:28.971Z,-0.50
2022-12-11T20:10:09.232Z,-0.60
2022-12-11T20:12:45.075Z,-0.60
2022-12-11T20:15:27.764Z,-0.50
2022-12-11T20:18:06.063Z,-0.50
2022-12-11T20:20:47.912Z,-0.50
2022-12-11T20:23:22.904Z,-0.50
2022-12-11T20:26:01.615Z,-0.50
2022-12-11T20:28:37.169Z,-0.50
2022-12-11T20:31:27.159Z,-0.50
2022-12-11T20:34:07.520Z,-0.50
2022-12-11T20:36:49.465Z,-0.50
2022-12-11T20:39:29.373Z,-0.10
2022-12-11T20:42:07.329Z,-0.50
2022-12-11T20:44:49.008Z,-0.50
2022-12-11T20:47:30.515Z,-0.50
2022-12-11T20:50:13.184Z,-0.50
2022-12-11T20:52:50.343Z,-0.50
2022-12-11T20:55:26.189Z,-0.50
2022-12-11T20:58:04.891Z,-0.50
2022-12-11T21:00:42.226Z,-0.50
2022-12-11T21:03:23.742Z,-0.50
2022-12-11T21:06:02.777Z,-0.50
2022-12-11T21:08:37.889Z,-0.30
2022-12-11T21:11:10.791Z,-0.40
2022-12-11T21:13:46.983Z,-0.40
2022-12-11T21:16:23.578Z,-0.50
2022-12-11T21:19:12.441Z,-0.40
2022-12-11T21:21:55.066Z,-0.50
2022-12-11T21:24:35.236Z,0.90
2022-12-11T21:27:18.431Z,-0.50
2022-12-11T21:29:56.961Z,-0.40
2022-12-11T21:32:38.408Z,1.10
2022-12-11T21:35:12.728Z,-0.40
2022-12-11T21:37:51.621Z,-0.40
2022-12-11T21:40:31.408Z,-0.40
2022-12-11T21:43:10.109Z,-0.40
2022-12-11T21:46:05.138Z,1.10
2022-12-11T21:48:45.461Z,-0.50
2022-12-11T21:51:22.361Z,-0.50
2022-12-11T21:54:01.379Z,-0.20
2022-12-11T21:56:43.322Z,-0.50
2022-12-11T21:59:24.829Z,-0.50
2022-12-11T22:02:23.257Z,-0.50
2022-12-11T22:05:02.082Z,-0.20
2022-12-11T22:07:46.431Z,0.20
2022-12-11T22:10:25.109Z,-0.60
2022-12-11T22:13:06.266Z,-0.60
2022-12-11T22:15:42.225Z,-0.60
2022-12-11T22:18:20.648Z,-0.60
2022-12-11T22:20:59.003Z,-0.60
2022-12-11T22:23:37.861Z,-0.50
2022-12-11T22:26:14.345Z,-0.60
2022-12-11T22:28:50.357Z,0.50
2022-12-11T22:31:29.333Z,-0.60
2022-12-11T22:34:05.439Z,-0.60
2022-12-11T22:36:51.407Z,-0.60
2022-12-11T22:39:28.985Z,-0.60
2022-12-11T22:42:07.829Z,-0.60
2022-12-11T22:44:51.020Z,0.30
2022-12-11T22:47:31.195Z,-0.60
2022-12-11T22:50:11.729Z,-0.30
2022-12-11T22:52:53.028Z,-0.60
2022-12-11T22:55:32.140Z,-0.60
2022-12-11T22:58:16.121Z,-0.70
2022-12-11T23:00:59.271Z,-0.70
2022-12-11T23:03:47.303Z,-0.70
2022-12-11T23:06:24.201Z,0.50
2022-12-11T23:09:05.417Z,1.00
2022-12-11T23:11:43.341Z,-0.70
2022-12-11T23:14:23.477Z,0.20
2022-12-11T23:17:05.053Z,-0.70
2022-12-11T23:19:41.368Z,-0.70
2022-12-11T23:22:20.466Z,-0.70
2022-12-11T23:24:53.328Z,-0.30
2022-12-11T23:27:32.127Z,-0.70
2022-12-11T23:30:09.396Z,-0.80
2022-12-11T23:32:48.007Z,-0.80
2022-12-11T23:35:27.188Z,-0.80
2022-12-11T23:38:08.894Z,-0.80
2022-12-11T23:40:48.296Z,-0.80
2022-12-11T23:43:29.874Z,-0.80
2022-12-11T23:46:09.232Z,-0.60
2022-12-11T23:48:51.240Z,-0.80
2022-12-11T23:54:19.835Z,-0.80
2022-12-11T23:57:02.439Z,-0.80
2022-12-11T23:59:43.387Z,-0.80
